createdAt,value
2019-02-04T00:01:17.046Z,12.90
2019-02-04T00:03:41.577Z,9.00
2019-02-04T00:06:06.245Z,8.07
2019-02-04T00:08:30.671Z,9.90
2019-02-04T00:10:55.072Z,7.50
2019-02-04T00:13:19.491Z,9.57
2019-02-04T00:15:44.113Z,13.30
2019-02-04T00:18:08.657Z,8.10
2019-02-04T00:20:33.138Z,8.33
2019-02-04T00:22:57.576Z,11.33
2019-02-04T00:25:21.971Z,8.40
2019-02-04T00:27:46.463Z,9.73
2019-02-04T00:30:16.686Z,9.60
2019-02-04T00:32:41.151Z,8.37
2019-02-04T00:35:06.318Z,12.23
2019-02-04T00:37:30.712Z,8.37
2019-02-04T00:39:55.136Z,10.07
2019-02-04T00:42:19.533Z,12.87
2019-02-04T00:44:43.956Z,8.03
2019-02-04T00:47:08.418Z,9.47
2019-02-04T00:49:32.847Z,10.73
2019-02-04T00:51:57.422Z,9.50
2019-02-04T00:54:21.845Z,12.20
2019-02-04T00:56:46.380Z,8.73
2019-02-04T00:59:10.801Z,12.50
2019-02-04T01:01:35.235Z,10.10
2019-02-04T01:03:59.712Z,9.67
2019-02-04T01:06:24.249Z,7.80
2019-02-04T01:08:49.678Z,9.07
2019-02-04T01:11:14.179Z,11.33
2019-02-04T01:13:40.501Z,14.07
2019-02-04T01:16:05.122Z,11.57
2019-02-04T01:18:29.488Z,8.00
2019-02-04T01:20:53.906Z,8.27
2019-02-04T01:23:18.301Z,8.03
2019-02-04T01:25:42.734Z,10.60
2019-02-04T01:28:07.130Z,8.00
2019-02-04T01:30:31.639Z,9.97
2019-02-04T01:32:56.118Z,11.20
2019-02-04T01:35:21.196Z,15.53
2019-02-04T01:37:45.664Z,12.90
2019-02-04T01:40:13.397Z,9.70
2019-02-04T01:42:37.894Z,11.10
2019-02-04T01:45:02.291Z,14.90
2019-02-04T01:47:26.715Z,10.37
2019-02-04T01:49:51.210Z,10.23
2019-02-04T01:52:15.635Z,10.70
2019-02-04T01:54:40.029Z,8.67
2019-02-04T01:57:04.459Z,11.20
2019-02-04T01:59:29.128Z,11.37
2019-02-04T02:01:53.566Z,12.03
2019-02-04T02:04:17.963Z,7.97
2019-02-04T02:06:42.392Z,10.83
2019-02-04T02:09:10.368Z,9.30
2019-02-04T02:11:34.876Z,11.77
2019-02-04T02:13:59.265Z,9.47
2019-02-04T02:16:23.675Z,9.53
2019-02-04T02:18:48.111Z,14.53
2019-02-04T02:21:12.515Z,14.23
2019-02-04T02:23:37.008Z,13.53
2019-02-04T02:26:01.481Z,10.63
2019-02-04T02:28:25.912Z,10.80
2019-02-04T02:30:50.327Z,10.50
2019-02-04T02:33:14.762Z,10.07
2019-02-04T02:35:39.152Z,7.87
2019-02-04T02:38:03.570Z,11.47
2019-02-04T02:40:30.615Z,14.47
2019-02-04T02:42:55.356Z,7.80
2019-02-04T02:45:19.853Z,13.80
2019-02-04T02:47:44.347Z,14.63
2019-02-04T02:50:11.523Z,10.80
2019-02-04T02:52:35.919Z,13.27
2019-02-04T02:55:00.366Z,12.20
2019-02-04T02:57:24.762Z,7.90
2019-02-04T02:59:49.197Z,10.93
2019-02-04T03:02:13.589Z,8.67
2019-02-04T03:04:38.012Z,10.47
2019-02-04T03:07:02.702Z,13.83
2019-02-04T03:09:27.090Z,12.50
2019-02-04T03:11:51.517Z,10.93
2019-02-04T03:14:15.922Z,14.93
2019-02-04T03:16:40.351Z,11.57
2019-02-04T03:19:04.986Z,13.60
2019-02-04T03:21:29.406Z,10.63
2019-02-04T03:23:53.880Z,13.40
2019-02-04T03:26:18.295Z,12.03
2019-02-04T03:28:42.977Z,16.30
2019-02-04T03:31:07.425Z,12.87
2019-02-04T03:33:31.837Z,12.47
2019-02-04T03:35:56.232Z,11.47
2019-02-04T03:38:20.644Z,16.97
2019-02-04T03:40:45.108Z,21.53
2019-02-04T03:43:09.527Z,15.30
2019-02-04T03:45:33.926Z,15.17
2019-02-04T03:48:06.940Z,14.60
2019-02-04T03:50:24.587Z,11.33
2019-02-04T03:52:49.290Z,14.70
2019-02-04T03:55:15.826Z,13.50
2019-02-04T03:57:40.323Z,15.07
2019-02-04T04:00:07.831Z,12.33
2019-02-04T04:02:32.325Z,13.60
2019-02-04T04:04:56.995Z,15.23
2019-02-04T04:07:21.475Z,15.97
2019-02-04T04:09:45.874Z,15.00
2019-02-04T04:12:10.572Z,12.67
2019-02-04T04:14:35.046Z,10.17
2019-02-04T04:16:59.442Z,13.53
2019-02-04T04:19:23.860Z,14.50
2019-02-04T04:21:48.265Z,11.70
2019-02-04T04:24:12.689Z,13.57
2019-02-04T04:26:37.168Z,18.03
2019-02-04T04:29:01.589Z,14.03
2019-02-04T04:31:25.993Z,12.50
2019-02-04T04:33:50.419Z,16.50
2019-02-04T04:36:15.071Z,12.63
2019-02-04T04:38:39.503Z,15.13
2019-02-04T04:41:04.071Z,11.67
2019-02-04T04:43:28.480Z,15.20
2019-02-04T04:45:52.879Z,15.87
2019-02-04T04:48:26.361Z,14.50
2019-02-04T04:50:43.476Z,12.10
2019-02-04T04:53:07.954Z,21.23
2019-02-04T04:55:32.458Z,15.83
2019-02-04T04:57:56.931Z,19.87
2019-02-04T05:00:24.678Z,14.30
2019-02-04T05:02:49.151Z,11.20
2019-02-04T05:05:14.627Z,14.70
2019-02-04T05:07:39.105Z,17.40
2019-02-04T05:10:04.329Z,17.37
2019-02-04T05:12:28.734Z,16.53
2019-02-04T05:14:53.178Z,14.37
2019-02-04T05:17:17.592Z,14.77
2019-02-04T05:19:42.261Z,20.20
2019-02-04T05:22:11.166Z,16.40
2019-02-04T05:24:35.592Z,14.30
2019-02-04T05:27:00.005Z,17.40
2019-02-04T05:29:24.482Z,15.53
2019-02-04T05:31:48.910Z,16.67
2019-02-04T05:34:13.317Z,18.20
2019-02-04T05:36:37.767Z,15.63
2019-02-04T05:39:02.201Z,14.30
2019-02-04T05:41:26.754Z,21.60
2019-02-04T05:43:51.586Z,15.13
2019-02-04T05:46:16.015Z,19.87
2019-02-04T05:48:49.034Z,16.00
2019-02-04T05:51:06.552Z,19.03
2019-02-04T05:53:30.963Z,18.07
2019-02-04T05:55:55.473Z,20.97
2019-02-04T05:58:19.883Z,20.53
2019-02-04T06:00:45.668Z,17.87
2019-02-04T06:03:10.180Z,20.50
2019-02-04T06:05:34.653Z,21.40
2019-02-04T06:07:59.235Z,20.60
2019-02-04T06:10:23.716Z,23.23
2019-02-04T06:12:48.224Z,20.73
2019-02-04T06:15:16.600Z,19.37
2019-02-04T06:17:41.032Z,19.13
2019-02-04T06:20:14.056Z,20.87
2019-02-04T06:22:38.508Z,19.23
2019-02-04T06:25:03.565Z,19.20
2019-02-04T06:27:28.090Z,17.53
2019-02-04T06:29:55.617Z,20.50
2019-02-04T06:32:20.142Z,21.00
2019-02-04T06:34:44.551Z,22.97
2019-02-04T06:37:08.956Z,18.67
2019-02-04T06:39:33.388Z,25.80
2019-02-04T06:41:57.856Z,21.77
2019-02-04T06:44:22.290Z,29.10
2019-02-04T06:46:46.775Z,23.70
2019-02-04T06:49:12.665Z,21.23
2019-02-04T06:51:37.160Z,20.63
2019-02-04T06:54:01.588Z,22.27
2019-02-04T06:56:26.069Z,24.60
2019-02-04T06:58:50.493Z,20.37
2019-02-04T07:01:14.959Z,20.47
2019-02-04T07:03:39.418Z,24.47
2019-02-04T07:06:03.910Z,24.03
2019-02-04T07:08:28.472Z,23.03
2019-02-04T07:10:53.009Z,28.20
2019-02-04T07:13:17.661Z,24.53
2019-02-04T07:15:42.099Z,26.43
2019-02-04T07:18:06.579Z,24.50
2019-02-04T07:20:31.088Z,22.43
2019-02-04T07:22:55.572Z,25.77
2019-02-04T07:25:20.433Z,27.97
2019-02-04T07:27:44.902Z,22.30
2019-02-04T07:30:26.321Z,23.87
2019-02-04T07:32:51.036Z,27.50
2019-02-04T07:35:17.408Z,22.13
2019-02-04T07:37:41.815Z,27.43
2019-02-04T07:40:09.308Z,28.37
2019-02-04T07:42:33.723Z,25.13
2019-02-04T07:44:58.159Z,29.80
2019-02-04T07:47:25.613Z,24.27
2019-02-04T07:49:50.107Z,29.87
2019-02-04T07:52:14.545Z,28.87
2019-02-04T07:54:39.229Z,31.97
2019-02-04T07:57:03.658Z,30.67
2019-02-04T07:59:28.071Z,25.93
2019-02-04T08:01:52.529Z,28.53
2019-02-04T08:04:16.949Z,26.93
2019-02-04T08:06:41.370Z,31.60
2019-02-04T08:09:08.689Z,33.30
2019-02-04T08:11:33.151Z,31.57
2019-02-04T08:13:57.652Z,26.07
2019-02-04T08:16:22.537Z,27.73
2019-02-04T08:18:48.598Z,28.30
2019-02-04T08:21:13.037Z,28.37
2019-02-04T08:23:37.462Z,27.40
2019-02-04T08:26:02.080Z,27.07
2019-02-04T08:28:26.477Z,28.37
2019-02-04T08:30:50.899Z,26.03
2019-02-04T08:33:15.341Z,27.07
2019-02-04T08:35:39.761Z,26.50
2019-02-04T08:38:04.415Z,25.93
2019-02-04T08:40:29.467Z,26.97
2019-02-04T08:42:53.977Z,24.93
2019-02-04T08:45:18.475Z,28.83
2019-02-04T08:47:43.159Z,28.63
2019-02-04T08:50:10.625Z,26.63
2019-02-04T08:52:35.057Z,25.57
2019-02-04T08:54:59.508Z,27.73
2019-02-04T08:57:24.152Z,26.53
2019-02-04T08:59:48.547Z,24.93
2019-02-04T09:02:13.021Z,24.90
2019-02-04T09:04:37.458Z,25.73
2019-02-04T09:07:02.389Z,23.17
2019-02-04T09:09:26.828Z,26.53
2019-02-04T09:11:51.335Z,25.10
2019-02-04T09:14:15.792Z,21.00
2019-02-04T09:16:40.210Z,27.57
2019-02-04T09:19:04.994Z,24.60
2019-02-04T09:21:29.477Z,24.87
2019-02-04T09:23:53.897Z,26.67
2019-02-04T09:26:18.384Z,23.80
2019-02-04T09:28:42.833Z,21.10
2019-02-04T09:31:08.134Z,21.47
2019-02-04T09:33:32.911Z,22.07
2019-02-04T09:35:57.321Z,23.10
2019-02-04T09:38:21.818Z,19.27
2019-02-04T09:40:46.408Z,20.77
2019-02-04T09:43:11.321Z,24.47
2019-02-04T09:45:35.873Z,18.27
2019-02-04T09:48:00.363Z,21.67
2019-02-04T09:50:27.849Z,23.57
2019-02-04T09:52:52.267Z,18.43
2019-02-04T09:55:21.686Z,20.37
2019-02-04T09:57:46.080Z,17.03
2019-02-04T10:00:16.631Z,16.83
2019-02-04T10:02:41.039Z,17.93
2019-02-04T10:05:09.019Z,17.27
2019-02-04T10:07:33.436Z,15.60
2019-02-04T10:09:59.042Z,18.93
2019-02-04T10:12:23.492Z,18.10
2019-02-04T10:14:48.399Z,17.47
2019-02-04T10:17:12.839Z,19.20
2019-02-04T10:19:37.212Z,19.13
2019-02-04T10:22:01.772Z,18.10
2019-02-04T10:24:26.170Z,17.03
2019-02-04T10:26:50.701Z,19.93
2019-02-04T10:29:15.154Z,16.33
2019-02-04T10:31:39.566Z,15.97
2019-02-04T10:34:04.108Z,18.13
2019-02-04T10:36:28.679Z,18.63
2019-02-04T10:38:53.466Z,22.00
2019-02-04T10:41:17.943Z,16.17
2019-02-04T10:43:42.327Z,16.83
2019-02-04T10:46:06.957Z,14.07
2019-02-04T10:48:31.473Z,15.00
2019-02-04T10:50:56.092Z,14.07
2019-02-04T10:53:20.507Z,12.83
2019-02-04T10:55:44.978Z,16.80
2019-02-04T10:58:11.595Z,12.90
2019-02-04T11:00:36.539Z,12.03
2019-02-04T11:03:01.333Z,11.70
2019-02-04T11:05:28.851Z,10.77
2019-02-04T11:07:53.482Z,10.33
2019-02-04T11:10:20.900Z,11.50
2019-02-04T11:12:45.477Z,11.53
2019-02-04T11:15:12.780Z,10.27
2019-02-04T11:17:37.324Z,11.47
2019-02-04T11:20:01.814Z,10.37
2019-02-04T11:22:26.602Z,9.63
2019-02-04T11:24:51.220Z,9.07
2019-02-04T11:27:15.706Z,9.40
2019-02-04T11:29:40.086Z,11.90
2019-02-04T11:32:05.296Z,10.20
2019-02-04T11:34:29.844Z,10.53
2019-02-04T11:36:54.250Z,10.53
2019-02-04T11:39:18.700Z,8.60
2019-02-04T11:41:43.223Z,9.50
2019-02-04T11:44:07.720Z,9.03
2019-02-04T11:46:32.407Z,8.53
2019-02-04T11:48:57.042Z,7.37
2019-02-04T11:51:21.434Z,8.10
2019-02-04T11:53:45.863Z,8.27
2019-02-04T11:56:10.263Z,10.20
2019-02-04T11:58:34.726Z,8.27
2019-02-04T12:00:59.158Z,10.13
2019-02-04T12:03:23.638Z,9.63
2019-02-04T12:05:48.195Z,8.57
2019-02-04T12:08:13.121Z,9.93
2019-02-04T12:10:43.737Z,9.83
2019-02-04T12:13:08.273Z,9.53
2019-02-04T12:15:32.869Z,8.40
2019-02-04T12:17:57.335Z,8.67
2019-02-04T12:20:21.842Z,8.67
2019-02-04T12:22:48.142Z,8.40
2019-02-04T12:25:15.455Z,8.17
2019-02-04T12:27:39.870Z,8.87
2019-02-04T12:30:10.138Z,9.97
2019-02-04T12:32:34.575Z,11.17
2019-02-04T12:34:58.990Z,7.73
2019-02-04T12:37:23.560Z,10.27
2019-02-04T12:39:48.002Z,9.70
2019-02-04T12:42:12.581Z,9.73
2019-02-04T12:44:37.057Z,9.53
2019-02-04T12:47:01.549Z,9.07
2019-02-04T12:49:25.945Z,11.33
2019-02-04T12:51:50.592Z,10.30
2019-02-04T12:54:15.382Z,11.10
2019-02-04T12:56:39.880Z,9.73
2019-02-04T12:59:04.527Z,11.37
2019-02-04T13:01:28.959Z,9.80
2019-02-04T13:03:53.370Z,10.27
2019-02-04T13:06:17.785Z,11.23
2019-02-04T13:08:42.219Z,15.63
2019-02-04T13:11:06.759Z,10.93
2019-02-04T13:13:31.263Z,11.90
2019-02-04T13:15:55.654Z,12.00
2019-02-04T13:18:20.477Z,12.77
2019-02-04T13:20:45.011Z,12.37
2019-02-04T13:23:09.888Z,14.67
2019-02-04T13:25:34.297Z,15.13
2019-02-04T13:27:58.898Z,14.40
2019-02-04T13:30:25.747Z,14.83
2019-02-04T13:32:50.252Z,13.60
2019-02-04T13:35:15.631Z,13.83
2019-02-04T13:37:40.040Z,13.27
2019-02-04T13:40:10.534Z,14.97
2019-02-04T13:42:35.018Z,13.13
2019-02-04T13:44:59.617Z,15.30
2019-02-04T13:47:24.180Z,14.43
2019-02-04T13:49:48.640Z,14.80
2019-02-04T13:52:15.224Z,18.07
2019-02-04T13:54:39.334Z,14.33
2019-02-04T13:57:03.841Z,12.60
2019-02-04T13:59:28.279Z,14.97
2019-02-04T14:01:53.059Z,13.67
2019-02-04T14:04:17.549Z,14.60
2019-02-04T14:06:42.133Z,12.03
2019-02-04T14:09:09.597Z,13.67
2019-02-04T14:11:34.202Z,16.17
2019-02-04T14:13:58.689Z,14.10
2019-02-04T14:16:23.258Z,15.10
2019-02-04T14:18:47.689Z,13.87
2019-02-04T14:21:12.208Z,21.33
2019-02-04T14:23:36.890Z,13.63
2019-02-04T14:26:01.359Z,12.43
2019-02-04T14:28:25.915Z,14.20
2019-02-04T14:30:50.607Z,18.27
2019-02-04T14:33:15.089Z,13.73
2019-02-04T14:35:39.585Z,20.03
2019-02-04T14:38:05.288Z,16.10
2019-02-04T14:40:29.838Z,14.73
2019-02-04T14:43:12.203Z,11.50
2019-02-04T14:45:39.649Z,13.33
2019-02-04T14:48:07.133Z,14.60
2019-02-04T14:50:40.284Z,14.00
2019-02-04T14:53:16.370Z,11.33
2019-02-04T14:55:49.803Z,12.77
2019-02-04T14:58:23.180Z,13.90
2019-02-04T15:01:17.711Z,11.27
2019-02-04T15:04:13.478Z,12.27
2019-02-04T15:06:52.842Z,12.13
2019-02-04T15:09:35.487Z,10.30
2019-02-04T15:12:20.195Z,11.83
2019-02-04T15:15:11.578Z,13.97
2019-02-04T15:17:36.685Z,10.83
2019-02-04T15:20:26.567Z,14.30
2019-02-04T15:23:02.698Z,10.50
2019-02-04T15:25:38.799Z,11.00
2019-02-04T15:28:08.924Z,12.30
2019-02-04T15:30:52.701Z,11.20
2019-02-04T15:33:20.346Z,12.37
2019-02-04T15:35:47.824Z,13.30
2019-02-04T15:38:21.080Z,10.50
2019-02-04T15:40:54.363Z,12.03
2019-02-04T15:43:27.418Z,14.67
2019-02-04T15:46:03.786Z,13.90
2019-02-04T15:48:34.146Z,12.90
2019-02-04T15:51:16.582Z,12.80
2019-02-04T15:53:41.048Z,12.30
2019-02-04T15:56:06.210Z,13.17
2019-02-04T15:58:30.634Z,12.33
2019-02-04T16:00:55.132Z,13.80
2019-02-04T16:03:19.718Z,14.50
2019-02-04T16:05:44.207Z,10.50
2019-02-04T16:08:08.699Z,12.07
2019-02-04T16:10:33.180Z,12.77
2019-02-04T16:12:57.616Z,10.07
2019-02-04T16:15:22.186Z,11.57
2019-02-04T16:17:46.859Z,10.87
2019-02-04T16:20:17.176Z,11.93
2019-02-04T16:22:41.639Z,12.23
2019-02-04T16:25:09.081Z,11.47
2019-02-04T16:27:33.485Z,13.10
2019-02-04T16:29:57.984Z,12.40
2019-02-04T16:32:22.435Z,11.27
2019-02-04T16:34:46.890Z,10.67
2019-02-04T16:37:11.483Z,12.13
2019-02-04T16:39:35.917Z,10.07
2019-02-04T16:42:00.609Z,9.70
2019-02-04T16:44:25.188Z,10.80
2019-02-04T16:46:49.593Z,10.03
2019-02-04T16:49:14.039Z,10.83
2019-02-04T16:51:38.520Z,10.70
2019-02-04T16:54:03.110Z,11.23
2019-02-04T16:56:27.591Z,9.83
2019-02-04T16:58:52.128Z,11.10
2019-02-04T17:01:16.544Z,14.40
2019-02-04T17:03:41.133Z,13.20
2019-02-04T17:06:05.691Z,10.40
2019-02-04T17:08:30.316Z,10.50
2019-02-04T17:10:54.827Z,9.60
2019-02-04T17:13:19.229Z,9.43
2019-02-04T17:15:43.671Z,10.17
2019-02-04T17:18:08.144Z,11.27
2019-02-04T17:20:33.202Z,9.10
2019-02-04T17:22:57.679Z,8.80
2019-02-04T17:25:22.261Z,9.10
2019-02-04T17:27:46.740Z,9.03
2019-02-04T17:30:25.206Z,11.53
2019-02-04T17:32:49.725Z,8.50
2019-02-04T17:35:14.283Z,8.40
2019-02-04T17:37:38.832Z,13.67
2019-02-04T17:40:03.288Z,11.57
2019-02-04T17:42:27.815Z,10.33
2019-02-04T17:44:52.234Z,9.37
2019-02-04T17:47:16.754Z,9.37
2019-02-04T17:49:41.278Z,10.37
2019-02-04T17:52:06.064Z,9.03
2019-02-04T17:54:30.443Z,10.77
2019-02-04T17:56:54.990Z,8.00
2019-02-04T17:59:19.374Z,8.37
2019-02-04T18:01:43.803Z,9.13
2019-02-04T18:04:08.269Z,9.07
2019-02-04T18:06:32.809Z,8.83
2019-02-04T18:08:57.314Z,7.97
2019-02-04T18:11:21.801Z,9.30
2019-02-04T18:13:46.307Z,8.60
2019-02-04T18:16:11.031Z,7.43
2019-02-04T18:18:35.482Z,9.10
2019-02-04T18:20:59.973Z,8.17
2019-02-04T18:23:24.471Z,9.27
2019-02-04T18:25:48.953Z,8.47
2019-02-04T18:28:13.471Z,8.83
2019-02-04T18:30:37.948Z,7.57
2019-02-04T18:33:02.454Z,8.10
2019-02-04T18:35:27.109Z,9.03
2019-02-04T18:37:51.511Z,7.77
2019-02-04T18:40:20.130Z,8.67
2019-02-04T18:42:44.703Z,10.30
2019-02-04T18:45:12.205Z,10.20
2019-02-04T18:47:36.608Z,8.90
2019-02-04T18:50:01.217Z,9.27
2019-02-04T18:52:25.947Z,9.00
2019-02-04T18:54:50.450Z,6.63
2019-02-04T18:57:15.168Z,9.73
2019-02-04T18:59:39.861Z,8.37
2019-02-04T19:02:04.810Z,8.47
2019-02-04T19:04:29.227Z,7.53
2019-02-04T19:06:53.776Z,7.37
2019-02-04T19:09:18.216Z,10.40
2019-02-04T19:11:42.698Z,6.73
2019-02-04T19:14:07.394Z,10.73
2019-02-04T19:16:31.949Z,6.83
2019-02-04T19:18:56.360Z,8.60
2019-02-04T19:21:21.175Z,7.70
2019-02-04T19:23:45.653Z,6.57
2019-02-04T19:26:10.199Z,7.60
2019-02-04T19:28:34.743Z,8.67
2019-02-04T19:31:02.593Z,8.03
2019-02-04T19:33:27.062Z,8.27
2019-02-04T19:35:51.713Z,7.83
2019-02-04T19:38:16.203Z,5.87
2019-02-04T19:40:40.781Z,8.47
2019-02-04T19:43:05.436Z,6.57
2019-02-04T19:45:30.196Z,6.27
2019-02-04T19:47:54.675Z,8.83
2019-02-04T19:50:24.755Z,7.33
2019-02-04T19:52:49.301Z,7.80
2019-02-04T19:55:14.075Z,7.67
2019-02-04T19:57:38.499Z,9.13
2019-02-04T20:00:03.174Z,6.30
2019-02-04T20:02:27.682Z,6.90
2019-02-04T20:04:52.175Z,6.57
2019-02-04T20:07:16.874Z,7.70
2019-02-04T20:09:41.355Z,7.57
2019-02-04T20:12:06.153Z,7.30
2019-02-04T20:14:30.654Z,7.07
2019-02-04T20:16:55.125Z,8.77
2019-02-04T20:19:19.606Z,8.40
2019-02-04T20:21:45.620Z,7.47
2019-02-04T20:24:10.164Z,8.37
2019-02-04T20:26:34.626Z,10.17
2019-02-04T20:28:59.046Z,8.53
2019-02-04T20:31:23.454Z,8.90
2019-02-04T20:33:47.908Z,10.07
2019-02-04T20:36:12.406Z,8.20
2019-02-04T20:38:36.918Z,8.37
2019-02-04T20:41:01.476Z,7.93
2019-02-04T20:43:25.931Z,9.47
2019-02-04T20:45:50.348Z,8.00
2019-02-04T20:48:14.926Z,12.57
2019-02-04T20:50:42.133Z,8.57
2019-02-04T20:53:06.724Z,9.73
2019-02-04T20:55:31.659Z,9.57
2019-02-04T20:57:56.513Z,11.10
2019-02-04T21:00:31.135Z,11.10
2019-02-04T21:02:55.545Z,13.50
2019-02-04T21:05:20.107Z,9.57
2019-02-04T21:07:44.605Z,8.90
2019-02-04T21:10:12.107Z,10.50
2019-02-04T21:12:36.542Z,9.03
2019-02-04T21:15:01.033Z,8.40
2019-02-04T21:17:27.445Z,9.80
2019-02-04T21:19:51.877Z,10.60
2019-02-04T21:22:16.364Z,9.50
2019-02-04T21:24:40.840Z,10.10
2019-02-04T21:27:05.577Z,9.63
2019-02-04T21:29:30.118Z,11.83
2019-02-04T21:31:54.514Z,8.87
2019-02-04T21:34:18.921Z,7.00
2019-02-04T21:36:43.429Z,8.40
2019-02-04T21:39:08.294Z,8.03
2019-02-04T21:41:33.002Z,7.33
2019-02-04T21:43:57.506Z,7.90
2019-02-04T21:46:22.005Z,6.77
2019-02-04T21:48:46.428Z,11.07
2019-02-04T21:51:10.928Z,10.60
2019-02-04T21:53:35.333Z,9.13
2019-02-04T21:55:59.752Z,7.60
2019-02-04T21:58:24.158Z,9.37
2019-02-04T22:00:48.673Z,7.47
2019-02-04T22:03:13.072Z,9.63
2019-02-04T22:05:37.471Z,9.20
2019-02-04T22:08:02.235Z,8.67
2019-02-04T22:10:28.484Z,9.90
2019-02-04T22:12:52.996Z,6.90
2019-02-04T22:15:17.540Z,9.23
2019-02-04T22:17:42.048Z,9.83
2019-02-04T22:20:09.772Z,9.30
2019-02-04T22:22:34.238Z,9.33
2019-02-04T22:24:58.640Z,10.03
2019-02-04T22:27:23.235Z,8.37
2019-02-04T22:29:47.636Z,7.13
2019-02-04T22:32:12.206Z,9.33
2019-02-04T22:34:36.882Z,7.60
2019-02-04T22:37:01.357Z,7.40
2019-02-04T22:39:25.802Z,9.57
2019-02-04T22:41:50.200Z,9.50
2019-02-04T22:44:14.638Z,9.13
2019-02-04T22:46:39.050Z,8.87
2019-02-04T22:49:03.496Z,9.63
2019-02-04T22:51:27.881Z,9.13
2019-02-04T22:53:52.398Z,7.60
2019-02-04T22:56:16.871Z,8.33
2019-02-04T22:58:41.574Z,10.23
2019-02-04T23:01:14.683Z,8.07
2019-02-04T23:03:39.170Z,9.87
2019-02-04T23:06:03.720Z,10.00
2019-02-04T23:08:28.177Z,10.37
2019-02-04T23:10:52.720Z,8.90
2019-02-04T23:13:17.189Z,11.13
2019-02-04T23:15:41.840Z,9.67
2019-02-04T23:18:06.670Z,9.30
2019-02-04T23:20:31.162Z,9.40
2019-02-04T23:22:55.641Z,10.93
2019-02-04T23:25:20.071Z,11.60
2019-02-04T23:27:44.491Z,7.17
2019-02-04T23:30:15.247Z,9.20
2019-02-04T23:32:39.642Z,9.93
2019-02-04T23:35:04.630Z,9.57
2019-02-04T23:37:29.115Z,8.23
2019-02-04T23:39:53.819Z,9.57
2019-02-04T23:42:18.370Z,8.60
2019-02-04T23:44:42.865Z,9.00
2019-02-04T23:47:07.272Z,8.60
2019-02-04T23:49:31.672Z,9.40
2019-02-04T23:51:56.183Z,8.20
2019-02-04T23:54:21.355Z,8.47
2019-02-04T23:56:45.778Z,9.50
2019-02-04T23:59:10.320Z,8.47
